sensor_id;sensor_type;location;lat;lon;timestamp;temperature;humidity
13268;DHT22;6702;47.068;15.458;2023-04-06T00:02:31;3.80;47.90
13268;DHT22;6702;47.068;15.458;2023-04-06T00:05:35;3.70;48.10
13268;DHT22;6702;47.068;15.458;2023-04-06T00:08:39;3.70;48.10
13268;DHT22;6702;47.068;15.458;2023-04-06T00:11:43;3.70;48.10
13268;DHT22;6702;47.068;15.458;2023-04-06T00:14:46;3.70;47.90
13268;DHT22;6702;47.068;15.458;2023-04-06T00:17:49;3.70;47.70
13268;DHT22;6702;47.068;15.458;2023-04-06T00:20:52;3.60;47.80
13268;DHT22;6702;47.068;15.458;2023-04-06T00:23:57;3.60;48.50
13268;DHT22;6702;47.068;15.458;2023-04-06T00:27:00;3.60;48.60
13268;DHT22;6702;47.068;15.458;2023-04-06T00:30:04;3.60;48.80
13268;DHT22;6702;47.068;15.458;2023-04-06T00:33:08;3.60;48.80
13268;DHT22;6702;47.068;15.458;2023-04-06T00:36:11;3.60;48.80
13268;DHT22;6702;47.068;15.458;2023-04-06T00:39:16;3.50;49.00
13268;DHT22;6702;47.068;15.458;2023-04-06T00:42:22;3.50;49.40
13268;DHT22;6702;47.068;15.458;2023-04-06T00:45:28;3.40;49.40
13268;DHT22;6702;47.068;15.458;2023-04-06T00:48:31;3.40;49.40
13268;DHT22;6702;47.068;15.458;2023-04-06T00:51:34;3.40;49.60
13268;DHT22;6702;47.068;15.458;2023-04-06T00:54:39;3.30;49.60
13268;DHT22;6702;47.068;15.458;2023-04-06T00:57:42;3.20;49.70
13268;DHT22;6702;47.068;15.458;2023-04-06T01:00:45;3.20;49.80
13268;DHT22;6702;47.068;15.458;2023-04-06T01:03:48;3.20;50.20
13268;DHT22;6702;47.068;15.458;2023-04-06T01:06:52;3.20;50.20
13268;DHT22;6702;47.068;15.458;2023-04-06T01:09:57;3.20;50.20
13268;DHT22;6702;47.068;15.458;2023-04-06T01:13:00;3.20;50.20
13268;DHT22;6702;47.068;15.458;2023-04-06T01:16:04;3.10;50.10
13268;DHT22;6702;47.068;15.458;2023-04-06T01:19:08;3.20;50.20
13268;DHT22;6702;47.068;15.458;2023-04-06T01:22:15;3.10;50.10
13268;DHT22;6702;47.068;15.458;2023-04-06T01:25:19;3.00;51.00
13268;DHT22;6702;47.068;15.458;2023-04-06T01:28:22;3.00;50.90
13268;DHT22;6702;47.068;15.458;2023-04-06T01:31:26;3.00;51.00
13268;DHT22;6702;47.068;15.458;2023-04-06T01:34:29;2.90;50.80
13268;DHT22;6702;47.068;15.458;2023-04-06T01:37:34;2.90;50.80
13268;DHT22;6702;47.068;15.458;2023-04-06T01:40:37;2.80;51.10
13268;DHT22;6702;47.068;15.458;2023-04-06T01:43:40;2.80;51.10
13268;DHT22;6702;47.068;15.458;2023-04-06T01:46:43;2.80;51.40
13268;DHT22;6702;47.068;15.458;2023-04-06T01:49:47;2.80;51.40
13268;DHT22;6702;47.068;15.458;2023-04-06T01:52:51;2.70;51.70
13268;DHT22;6702;47.068;15.458;2023-04-06T01:55:55;2.80;52.00
13268;DHT22;6702;47.068;15.458;2023-04-06T01:58:58;2.80;51.90
13268;DHT22;6702;47.068;15.458;2023-04-06T02:02:01;2.80;51.90
13268;DHT22;6702;47.068;15.458;2023-04-06T02:05:05;2.70;51.60
13268;DHT22;6702;47.068;15.458;2023-04-06T02:08:09;2.70;51.50
13268;DHT22;6702;47.068;15.458;2023-04-06T02:11:12;2.70;51.70
13268;DHT22;6702;47.068;15.458;2023-04-06T02:14:15;2.70;52.00
13268;DHT22;6702;47.068;15.458;2023-04-06T02:17:19;2.70;52.00
13268;DHT22;6702;47.068;15.458;2023-04-06T02:20:22;2.60;52.20
13268;DHT22;6702;47.068;15.458;2023-04-06T02:23:26;2.60;52.70
13268;DHT22;6702;47.068;15.458;2023-04-06T02:26:32;2.60;53.00
13268;DHT22;6702;47.068;15.458;2023-04-06T02:29:35;2.50;53.20
13268;DHT22;6702;47.068;15.458;2023-04-06T02:32:38;2.50;53.40
13268;DHT22;6702;47.068;15.458;2023-04-06T02:35:43;2.50;53.40
13268;DHT22;6702;47.068;15.458;2023-04-06T02:38:48;2.50;53.70
13268;DHT22;6702;47.068;15.458;2023-04-06T02:41:51;2.50;53.50
13268;DHT22;6702;47.068;15.458;2023-04-06T02:44:54;2.40;53.60
13268;DHT22;6702;47.068;15.458;2023-04-06T02:47:57;2.40;53.60
13268;DHT22;6702;47.068;15.458;2023-04-06T02:51:01;2.40;53.80
13268;DHT22;6702;47.068;15.458;2023-04-06T02:54:05;2.30;53.80
13268;DHT22;6702;47.068;15.458;2023-04-06T02:57:08;2.30;53.60
13268;DHT22;6702;47.068;15.458;2023-04-06T03:00:15;2.30;53.70
13268;DHT22;6702;47.068;15.458;2023-04-06T03:03:18;2.30;53.80
13268;DHT22;6702;47.068;15.458;2023-04-06T03:06:21;2.30;53.70
13268;DHT22;6702;47.068;15.458;2023-04-06T03:09:26;2.20;53.70
13268;DHT22;6702;47.068;15.458;2023-04-06T03:12:32;2.30;53.80
13268;DHT22;6702;47.068;15.458;2023-04-06T03:15:35;2.30;53.80
13268;DHT22;6702;47.068;15.458;2023-04-06T03:18:38;2.20;53.60
13268;DHT22;6702;47.068;15.458;2023-04-06T03:21:42;2.10;54.60
13268;DHT22;6702;47.068;15.458;2023-04-06T03:24:46;2.10;54.20
13268;DHT22;6702;47.068;15.458;2023-04-06T03:27:49;2.10;54.90
13268;DHT22;6702;47.068;15.458;2023-04-06T03:30:52;2.10;54.60
13268;DHT22;6702;47.068;15.458;2023-04-06T03:33:56;2.10;54.50
13268;DHT22;6702;47.068;15.458;2023-04-06T03:36:59;2.10;54.70
13268;DHT22;6702;47.068;15.458;2023-04-06T03:40:12;2.00;54.70
13268;DHT22;6702;47.068;15.458;2023-04-06T03:43:18;2.00;54.70
13268;DHT22;6702;47.068;15.458;2023-04-06T03:46:21;2.00;54.90
13268;DHT22;6702;47.068;15.458;2023-04-06T03:49:24;1.90;54.80
13268;DHT22;6702;47.068;15.458;2023-04-06T03:52:27;1.90;55.00
13268;DHT22;6702;47.068;15.458;2023-04-06T03:55:32;1.90;55.10
13268;DHT22;6702;47.068;15.458;2023-04-06T03:58:35;1.80;55.20
13268;DHT22;6702;47.068;15.458;2023-04-06T04:01:38;1.80;55.10
13268;DHT22;6702;47.068;15.458;2023-04-06T04:04:42;1.80;55.10
13268;DHT22;6702;47.068;15.458;2023-04-06T04:07:45;1.80;55.10
13268;DHT22;6702;47.068;15.458;2023-04-06T04:10:49;1.80;55.20
13268;DHT22;6702;47.068;15.458;2023-04-06T04:13:53;1.80;55.20
13268;DHT22;6702;47.068;15.458;2023-04-06T04:16:56;1.80;55.20
13268;DHT22;6702;47.068;15.458;2023-04-06T04:19:59;1.80;55.40
13268;DHT22;6702;47.068;15.458;2023-04-06T04:23:02;1.70;55.40
13268;DHT22;6702;47.068;15.458;2023-04-06T04:26:07;1.70;55.50
13268;DHT22;6702;47.068;15.458;2023-04-06T04:29:10;1.70;55.50
13268;DHT22;6702;47.068;15.458;2023-04-06T04:32:13;1.80;55.50
13268;DHT22;6702;47.068;15.458;2023-04-06T04:35:16;1.80;55.70
13268;DHT22;6702;47.068;15.458;2023-04-06T04:38:19;1.70;55.70
13268;DHT22;6702;47.068;15.458;2023-04-06T04:41:24;1.70;55.60
13268;DHT22;6702;47.068;15.458;2023-04-06T04:44:27;1.70;55.80
13268;DHT22;6702;47.068;15.458;2023-04-06T04:47:30;1.70;56.10
13268;DHT22;6702;47.068;15.458;2023-04-06T04:50:33;1.70;56.10
13268;DHT22;6702;47.068;15.458;2023-04-06T04:53:37;1.70;56.00
13268;DHT22;6702;47.068;15.458;2023-04-06T04:56:41;1.70;56.10
13268;DHT22;6702;47.068;15.458;2023-04-06T04:59:44;1.70;55.90
13268;DHT22;6702;47.068;15.458;2023-04-06T05:02:47;1.70;56.00
13268;DHT22;6702;47.068;15.458;2023-04-06T05:05:50;1.70;56.70
13268;DHT22;6702;47.068;15.458;2023-04-06T05:08:53;1.80;56.70
13268;DHT22;6702;47.068;15.458;2023-04-06T05:11:58;1.80;56.70
13268;DHT22;6702;47.068;15.458;2023-04-06T05:15:02;1.80;56.20
13268;DHT22;6702;47.068;15.458;2023-04-06T05:18:05;1.80;56.90
13268;DHT22;6702;47.068;15.458;2023-04-06T05:21:10;1.80;56.50
13268;DHT22;6702;47.068;15.458;2023-04-06T05:24:15;1.90;56.30
13268;DHT22;6702;47.068;15.458;2023-04-06T05:27:19;1.90;56.50
13268;DHT22;6702;47.068;15.458;2023-04-06T05:30:22;2.00;56.20
13268;DHT22;6702;47.068;15.458;2023-04-06T05:33:26;2.00;56.10
13268;DHT22;6702;47.068;15.458;2023-04-06T05:36:29;2.10;56.20
13268;DHT22;6702;47.068;15.458;2023-04-06T05:39:36;2.10;56.00
13268;DHT22;6702;47.068;15.458;2023-04-06T05:42:42;2.20;55.80
13268;DHT22;6702;47.068;15.458;2023-04-06T05:45:45;2.30;55.70
13268;DHT22;6702;47.068;15.458;2023-04-06T05:48:48;2.40;55.60
13268;DHT22;6702;47.068;15.458;2023-04-06T05:51:51;2.40;55.40
13268;DHT22;6702;47.068;15.458;2023-04-06T05:54:55;2.50;55.40
13268;DHT22;6702;47.068;15.458;2023-04-06T05:57:59;2.60;55.60
13268;DHT22;6702;47.068;15.458;2023-04-06T06:01:03;2.70;55.50
13268;DHT22;6702;47.068;15.458;2023-04-06T06:04:06;2.90;54.90
13268;DHT22;6702;47.068;15.458;2023-04-06T06:07:09;2.90;54.50
13268;DHT22;6702;47.068;15.458;2023-04-06T06:10:13;3.00;54.40
13268;DHT22;6702;47.068;15.458;2023-04-06T06:13:17;3.10;54.00
13268;DHT22;6702;47.068;15.458;2023-04-06T06:16:21;3.30;53.60
13268;DHT22;6702;47.068;15.458;2023-04-06T06:19:26;3.50;53.40
13268;DHT22;6702;47.068;15.458;2023-04-06T06:22:29;3.70;52.60
13268;DHT22;6702;47.068;15.458;2023-04-06T06:25:33;4.00;52.00
13268;DHT22;6702;47.068;15.458;2023-04-06T06:28:37;4.40;51.70
13268;DHT22;6702;47.068;15.458;2023-04-06T06:31:40;5.90;51.20
13268;DHT22;6702;47.068;15.458;2023-04-06T06:34:44;8.30;47.00
13268;DHT22;6702;47.068;15.458;2023-04-06T06:37:47;10.70;41.40
13268;DHT22;6702;47.068;15.458;2023-04-06T06:40:50;12.50;37.40
13268;DHT22;6702;47.068;15.458;2023-04-06T06:43:54;14.10;33.50
13268;DHT22;6702;47.068;15.458;2023-04-06T06:46:57;15.10;30.20
13268;DHT22;6702;47.068;15.458;2023-04-06T06:50:01;16.00;29.10
13268;DHT22;6702;47.068;15.458;2023-04-06T06:53:04;17.10;28.10
13268;DHT22;6702;47.068;15.458;2023-04-06T06:56:08;17.80;26.50
13268;DHT22;6702;47.068;15.458;2023-04-06T06:59:12;18.60;25.50
13268;DHT22;6702;47.068;15.458;2023-04-06T07:02:15;19.40;25.00
13268;DHT22;6702;47.068;15.458;2023-04-06T07:05:19;19.80;24.00
13268;DHT22;6702;47.068;15.458;2023-04-06T07:08:29;20.60;23.20
13268;DHT22;6702;47.068;15.458;2023-04-06T07:11:32;21.30;22.50
13268;DHT22;6702;47.068;15.458;2023-04-06T07:14:37;21.80;20.90
13268;DHT22;6702;47.068;15.458;2023-04-06T07:17:40;22.30;20.30
13268;DHT22;6702;47.068;15.458;2023-04-06T07:20:45;23.00;20.10
13268;DHT22;6702;47.068;15.458;2023-04-06T07:23:48;23.90;19.90
13268;DHT22;6702;47.068;15.458;2023-04-06T07:26:52;24.60;18.80
13268;DHT22;6702;47.068;15.458;2023-04-06T07:29:57;24.90;18.30
13268;DHT22;6702;47.068;15.458;2023-04-06T07:33:00;25.50;17.80
13268;DHT22;6702;47.068;15.458;2023-04-06T07:36:03;25.90;17.10
13268;DHT22;6702;47.068;15.458;2023-04-06T07:39:07;26.00;16.40
13268;DHT22;6702;47.068;15.458;2023-04-06T07:42:11;26.10;16.80
13268;DHT22;6702;47.068;15.458;2023-04-06T07:45:15;27.10;16.20
13268;DHT22;6702;47.068;15.458;2023-04-06T07:48:18;28.00;15.80
13268;DHT22;6702;47.068;15.458;2023-04-06T07:51:21;28.10;15.20
13268;DHT22;6702;47.068;15.458;2023-04-06T07:54:25;28.70;14.70
13268;DHT22;6702;47.068;15.458;2023-04-06T07:57:28;29.00;14.20
13268;DHT22;6702;47.068;15.458;2023-04-06T08:00:33;29.20;14.00
13268;DHT22;6702;47.068;15.458;2023-04-06T08:03:36;29.20;13.60
13268;DHT22;6702;47.068;15.458;2023-04-06T08:06:39;29.30;13.60
13268;DHT22;6702;47.068;15.458;2023-04-06T08:09:43;30.20;13.40
13268;DHT22;6702;47.068;15.458;2023-04-06T08:12:46;31.10;13.00
13268;DHT22;6702;47.068;15.458;2023-04-06T08:15:50;31.70;12.30
13268;DHT22;6702;47.068;15.458;2023-04-06T08:18:55;32.20;12.00
13268;DHT22;6702;47.068;15.458;2023-04-06T08:21:58;33.00;11.70
13268;DHT22;6702;47.068;15.458;2023-04-06T08:25:01;32.80;11.40
13268;DHT22;6702;47.068;15.458;2023-04-06T08:28:05;33.40;10.90
13268;DHT22;6702;47.068;15.458;2023-04-06T08:31:09;33.80;11.00
13268;DHT22;6702;47.068;15.458;2023-04-06T08:34:12;34.90;10.30
13268;DHT22;6702;47.068;15.458;2023-04-06T08:37:16;35.20;9.80
13268;DHT22;6702;47.068;15.458;2023-04-06T08:40:19;35.80;9.40
13268;DHT22;6702;47.068;15.458;2023-04-06T08:43:22;35.30;9.60
13268;DHT22;6702;47.068;15.458;2023-04-06T08:46:29;35.60;9.60
13268;DHT22;6702;47.068;15.458;2023-04-06T08:49:34;36.90;8.50
13268;DHT22;6702;47.068;15.458;2023-04-06T08:52:38;38.00;8.10
13268;DHT22;6702;47.068;15.458;2023-04-06T08:55:43;37.70;7.30
13268;DHT22;6702;47.068;15.458;2023-04-06T08:58:46;37.60;7.50
13268;DHT22;6702;47.068;15.458;2023-04-06T09:01:52;38.10;7.10
13268;DHT22;6702;47.068;15.458;2023-04-06T09:04:57;38.40;6.40
13268;DHT22;6702;47.068;15.458;2023-04-06T09:08:01;39.10;6.90
13268;DHT22;6702;47.068;15.458;2023-04-06T09:11:04;39.60;7.60
13268;DHT22;6702;47.068;15.458;2023-04-06T09:14:07;39.70;6.10
13268;DHT22;6702;47.068;15.458;2023-04-06T09:17:21;38.30;6.00
13268;DHT22;6702;47.068;15.458;2023-04-06T09:20:25;38.30;6.20
13268;DHT22;6702;47.068;15.458;2023-04-06T09:23:30;38.90;5.90
13268;DHT22;6702;47.068;15.458;2023-04-06T09:26:44;39.50;5.80
13268;DHT22;6702;47.068;15.458;2023-04-06T09:29:47;39.70;5.70
13268;DHT22;6702;47.068;15.458;2023-04-06T09:32:54;39.70;5.70
13268;DHT22;6702;47.068;15.458;2023-04-06T09:35:57;38.50;5.80
13268;DHT22;6702;47.068;15.458;2023-04-06T09:39:02;38.50;6.30
13268;DHT22;6702;47.068;15.458;2023-04-06T09:42:06;39.00;5.80
13268;DHT22;6702;47.068;15.458;2023-04-06T09:45:09;39.70;5.90
13268;DHT22;6702;47.068;15.458;2023-04-06T09:48:14;40.50;5.60
13268;DHT22;6702;47.068;15.458;2023-04-06T09:51:18;40.60;5.30
13268;DHT22;6702;47.068;15.458;2023-04-06T09:54:23;40.20;5.60
13268;DHT22;6702;47.068;15.458;2023-04-06T09:57:32;37.70;6.00
13268;DHT22;6702;47.068;15.458;2023-04-06T10:00:43;35.80;6.90
13268;DHT22;6702;47.068;15.458;2023-04-06T10:03:52;33.90;7.80
13268;DHT22;6702;47.068;15.458;2023-04-06T10:06:59;30.30;8.70
13268;DHT22;6702;47.068;15.458;2023-04-06T10:10:03;28.40;10.60
13268;DHT22;6702;47.068;15.458;2023-04-06T10:13:07;27.10;12.00
13268;DHT22;6702;47.068;15.458;2023-04-06T10:16:13;25.90;12.30
13268;DHT22;6702;47.068;15.458;2023-04-06T10:19:22;24.80;12.10
13268;DHT22;6702;47.068;15.458;2023-04-06T10:22:32;23.60;13.20
13268;DHT22;6702;47.068;15.458;2023-04-06T10:25:38;22.00;13.40
13268;DHT22;6702;47.068;15.458;2023-04-06T10:28:42;20.50;15.00
13268;DHT22;6702;47.068;15.458;2023-04-06T10:31:48;19.50;16.20
13268;DHT22;6702;47.068;15.458;2023-04-06T10:34:53;18.90;17.00
13268;DHT22;6702;47.068;15.458;2023-04-06T10:38:07;18.40;16.30
13268;DHT22;6702;47.068;15.458;2023-04-06T10:41:11;18.00;17.70
13268;DHT22;6702;47.068;15.458;2023-04-06T10:44:20;17.60;16.80
13268;DHT22;6702;47.068;15.458;2023-04-06T10:47:23;17.30;17.60
13268;DHT22;6702;47.068;15.458;2023-04-06T10:50:29;17.20;17.90
13268;DHT22;6702;47.068;15.458;2023-04-06T10:53:33;17.00;19.20
13268;DHT22;6702;47.068;15.458;2023-04-06T10:56:37;17.20;17.80
13268;DHT22;6702;47.068;15.458;2023-04-06T10:59:42;17.10;17.30
13268;DHT22;6702;47.068;15.458;2023-04-06T11:02:46;17.00;17.60
13268;DHT22;6702;47.068;15.458;2023-04-06T11:05:51;16.60;16.80
13268;DHT22;6702;47.068;15.458;2023-04-06T11:08:55;16.50;17.60
13268;DHT22;6702;47.068;15.458;2023-04-06T11:11:58;16.60;17.60
13268;DHT22;6702;47.068;15.458;2023-04-06T11:15:03;16.90;17.30
13268;DHT22;6702;47.068;15.458;2023-04-06T11:18:07;17.10;17.50
13268;DHT22;6702;47.068;15.458;2023-04-06T11:21:12;17.20;17.20
13268;DHT22;6702;47.068;15.458;2023-04-06T11:24:16;17.20;16.90
13268;DHT22;6702;47.068;15.458;2023-04-06T11:27:21;16.90;17.30
13268;DHT22;6702;47.068;15.458;2023-04-06T11:30:24;17.00;17.90
13268;DHT22;6702;47.068;15.458;2023-04-06T11:33:27;16.90;17.00
13268;DHT22;6702;47.068;15.458;2023-04-06T11:36:33;16.50;16.80
13268;DHT22;6702;47.068;15.458;2023-04-06T11:39:38;16.40;17.40
13268;DHT22;6702;47.068;15.458;2023-04-06T11:42:42;16.40;17.80
13268;DHT22;6702;47.068;15.458;2023-04-06T11:46:00;16.50;17.70
13268;DHT22;6702;47.068;15.458;2023-04-06T11:49:04;16.30;16.90
13268;DHT22;6702;47.068;15.458;2023-04-06T11:52:17;16.40;17.60
13268;DHT22;6702;47.068;15.458;2023-04-06T11:55:20;16.10;17.10
13268;DHT22;6702;47.068;15.458;2023-04-06T11:58:23;16.10;17.60
13268;DHT22;6702;47.068;15.458;2023-04-06T12:01:26;16.10;17.20
13268;DHT22;6702;47.068;15.458;2023-04-06T12:04:30;16.00;17.10
13268;DHT22;6702;47.068;15.458;2023-04-06T12:07:35;15.90;17.20
13268;DHT22;6702;47.068;15.458;2023-04-06T12:10:38;15.50;17.50
13268;DHT22;6702;47.068;15.458;2023-04-06T12:13:42;15.40;17.90
13268;DHT22;6702;47.068;15.458;2023-04-06T12:16:48;15.30;18.00
13268;DHT22;6702;47.068;15.458;2023-04-06T12:19:51;15.30;17.70
13268;DHT22;6702;47.068;15.458;2023-04-06T12:22:56;15.30;18.00
13268;DHT22;6702;47.068;15.458;2023-04-06T12:26:00;15.40;18.20
13268;DHT22;6702;47.068;15.458;2023-04-06T12:29:04;15.50;18.10
13268;DHT22;6702;47.068;15.458;2023-04-06T12:32:09;15.80;17.90
13268;DHT22;6702;47.068;15.458;2023-04-06T12:35:12;16.10;17.90
13268;DHT22;6702;47.068;15.458;2023-04-06T12:38:18;16.40;17.60
13268;DHT22;6702;47.068;15.458;2023-04-06T12:41:22;16.50;17.00
13268;DHT22;6702;47.068;15.458;2023-04-06T12:44:26;16.50;17.50
13268;DHT22;6702;47.068;15.458;2023-04-06T12:47:29;16.40;17.40
13268;DHT22;6702;47.068;15.458;2023-04-06T12:50:33;16.40;17.70
13268;DHT22;6702;47.068;15.458;2023-04-06T12:53:38;16.40;17.80
13268;DHT22;6702;47.068;15.458;2023-04-06T12:56:41;16.60;18.10
13268;DHT22;6702;47.068;15.458;2023-04-06T12:59:44;16.70;17.60
13268;DHT22;6702;47.068;15.458;2023-04-06T13:02:48;16.90;17.30
13268;DHT22;6702;47.068;15.458;2023-04-06T13:05:51;16.60;17.30
13268;DHT22;6702;47.068;15.458;2023-04-06T13:08:56;16.50;17.50
13268;DHT22;6702;47.068;15.458;2023-04-06T13:11:59;16.40;17.00
13268;DHT22;6702;47.068;15.458;2023-04-06T13:15:03;16.20;16.80
13268;DHT22;6702;47.068;15.458;2023-04-06T13:18:06;16.10;17.60
13268;DHT22;6702;47.068;15.458;2023-04-06T13:21:13;16.00;17.10
13268;DHT22;6702;47.068;15.458;2023-04-06T13:24:19;15.90;17.60
13268;DHT22;6702;47.068;15.458;2023-04-06T13:27:23;15.70;17.60
13268;DHT22;6702;47.068;15.458;2023-04-06T13:30:27;15.70;18.70
13268;DHT22;6702;47.068;15.458;2023-04-06T13:33:30;15.80;18.80
13268;DHT22;6702;47.068;15.458;2023-04-06T13:36:34;15.90;17.80
13268;DHT22;6702;47.068;15.458;2023-04-06T13:39:38;15.40;17.50
13268;DHT22;6702;47.068;15.458;2023-04-06T13:42:42;15.30;17.90
13268;DHT22;6702;47.068;15.458;2023-04-06T13:45:50;15.30;18.50
13268;DHT22;6702;47.068;15.458;2023-04-06T13:48:59;15.40;18.60
13268;DHT22;6702;47.068;15.458;2023-04-06T13:52:02;15.50;18.40
13268;DHT22;6702;47.068;15.458;2023-04-06T13:55:07;15.60;18.10
13268;DHT22;6702;47.068;15.458;2023-04-06T13:58:12;15.60;18.30
13268;DHT22;6702;47.068;15.458;2023-04-06T14:01:15;15.60;18.40
13268;DHT22;6702;47.068;15.458;2023-04-06T14:04:18;15.70;18.40
13268;DHT22;6702;47.068;15.458;2023-04-06T14:07:22;15.70;18.30
13268;DHT22;6702;47.068;15.458;2023-04-06T14:10:27;15.70;17.90
13268;DHT22;6702;47.068;15.458;2023-04-06T14:13:30;15.80;46.80
13268;DHT22;6702;47.068;15.458;2023-04-06T14:16:33;16.40;21.90
13268;DHT22;6702;47.068;15.458;2023-04-06T14:19:36;16.30;19.60
13268;DHT22;6702;47.068;15.458;2023-04-06T14:22:40;15.90;19.70
13268;DHT22;6702;47.068;15.458;2023-04-06T14:25:45;15.70;19.50
13268;DHT22;6702;47.068;15.458;2023-04-06T14:28:48;15.60;19.50
13268;DHT22;6702;47.068;15.458;2023-04-06T14:31:52;15.40;18.70
13268;DHT22;6702;47.068;15.458;2023-04-06T14:35:01;15.10;19.00
13268;DHT22;6702;47.068;15.458;2023-04-06T14:38:06;15.10;19.00
13268;DHT22;6702;47.068;15.458;2023-04-06T14:41:16;14.90;18.40
13268;DHT22;6702;47.068;15.458;2023-04-06T14:44:20;14.80;19.10
13268;DHT22;6702;47.068;15.458;2023-04-06T14:47:23;14.80;19.80
13268;DHT22;6702;47.068;15.458;2023-04-06T14:50:27;14.80;19.80
13268;DHT22;6702;47.068;15.458;2023-04-06T14:53:30;14.80;20.10
13268;DHT22;6702;47.068;15.458;2023-04-06T14:56:34;14.70;19.90
13268;DHT22;6702;47.068;15.458;2023-04-06T14:59:40;14.70;20.20
13268;DHT22;6702;47.068;15.458;2023-04-06T15:02:43;14.80;20.20
13268;DHT22;6702;47.068;15.458;2023-04-06T15:05:46;14.80;20.00
13268;DHT22;6702;47.068;15.458;2023-04-06T15:08:50;14.70;20.10
13268;DHT22;6702;47.068;15.458;2023-04-06T15:11:54;14.60;19.80
13268;DHT22;6702;47.068;15.458;2023-04-06T15:14:58;14.60;19.60
13268;DHT22;6702;47.068;15.458;2023-04-06T15:18:02;14.50;20.00
13268;DHT22;6702;47.068;15.458;2023-04-06T15:21:06;14.60;19.70
13268;DHT22;6702;47.068;15.458;2023-04-06T15:24:09;14.60;19.70
13268;DHT22;6702;47.068;15.458;2023-04-06T15:27:13;14.60;20.80
13268;DHT22;6702;47.068;15.458;2023-04-06T15:30:17;14.60;20.80
13268;DHT22;6702;47.068;15.458;2023-04-06T15:33:20;14.60;20.60
13268;DHT22;6702;47.068;15.458;2023-04-06T15:36:25;14.60;20.50
13268;DHT22;6702;47.068;15.458;2023-04-06T15:39:30;14.70;25.50
13268;DHT22;6702;47.068;15.458;2023-04-06T15:42:35;14.60;20.90
13268;DHT22;6702;47.068;15.458;2023-04-06T15:45:38;14.60;20.80
13268;DHT22;6702;47.068;15.458;2023-04-06T15:48:42;14.60;20.50
13268;DHT22;6702;47.068;15.458;2023-04-06T15:51:46;14.60;20.10
13268;DHT22;6702;47.068;15.458;2023-04-06T15:54:49;14.70;20.20
13268;DHT22;6702;47.068;15.458;2023-04-06T15:57:54;14.70;20.90
13268;DHT22;6702;47.068;15.458;2023-04-06T16:00:57;14.70;20.30
13268;DHT22;6702;47.068;15.458;2023-04-06T16:04:01;14.60;20.70
13268;DHT22;6702;47.068;15.458;2023-04-06T16:07:05;14.40;20.10
13268;DHT22;6702;47.068;15.458;2023-04-06T16:10:09;14.40;20.90
13268;DHT22;6702;47.068;15.458;2023-04-06T16:13:13;14.40;21.10
13268;DHT22;6702;47.068;15.458;2023-04-06T16:16:17;14.30;20.40
13268;DHT22;6702;47.068;15.458;2023-04-06T16:19:21;14.30;20.90
13268;DHT22;6702;47.068;15.458;2023-04-06T16:22:24;14.20;20.50
13268;DHT22;6702;47.068;15.458;2023-04-06T16:25:29;14.10;20.30
13268;DHT22;6702;47.068;15.458;2023-04-06T16:28:34;13.90;21.10
13268;DHT22;6702;47.068;15.458;2023-04-06T16:31:37;13.90;20.30
13268;DHT22;6702;47.068;15.458;2023-04-06T16:34:40;13.80;20.40
13268;DHT22;6702;47.068;15.458;2023-04-06T16:37:43;13.70;20.40
13268;DHT22;6702;47.068;15.458;2023-04-06T16:40:47;13.60;20.40
13268;DHT22;6702;47.068;15.458;2023-04-06T16:43:52;13.50;20.90
13268;DHT22;6702;47.068;15.458;2023-04-06T16:46:55;13.40;21.00
13268;DHT22;6702;47.068;15.458;2023-04-06T16:49:59;13.30;21.10
13268;DHT22;6702;47.068;15.458;2023-04-06T16:53:06;13.20;21.80
13268;DHT22;6702;47.068;15.458;2023-04-06T16:56:11;13.10;21.20
13268;DHT22;6702;47.068;15.458;2023-04-06T16:59:15;13.00;21.90
13268;DHT22;6702;47.068;15.458;2023-04-06T17:02:18;12.80;21.40
13268;DHT22;6702;47.068;15.458;2023-04-06T17:05:22;12.70;21.70
13268;DHT22;6702;47.068;15.458;2023-04-06T17:08:27;12.60;22.30
13268;DHT22;6702;47.068;15.458;2023-04-06T17:11:30;12.60;21.80
13268;DHT22;6702;47.068;15.458;2023-04-06T17:14:48;12.50;21.90
13268;DHT22;6702;47.068;15.458;2023-04-06T17:17:51;12.40;22.40
13268;DHT22;6702;47.068;15.458;2023-04-06T17:20:55;12.30;22.40
13268;DHT22;6702;47.068;15.458;2023-04-06T17:23:58;12.10;22.80
13268;DHT22;6702;47.068;15.458;2023-04-06T17:27:01;12.10;22.40
13268;DHT22;6702;47.068;15.458;2023-04-06T17:30:10;12.00;22.80
13268;DHT22;6702;47.068;15.458;2023-04-06T17:33:13;11.90;22.70
13268;DHT22;6702;47.068;15.458;2023-04-06T17:36:17;11.90;22.80
13268;DHT22;6702;47.068;15.458;2023-04-06T17:39:22;11.90;23.10
13268;DHT22;6702;47.068;15.458;2023-04-06T17:42:25;11.70;22.70
13268;DHT22;6702;47.068;15.458;2023-04-06T17:45:30;11.50;22.60
13268;DHT22;6702;47.068;15.458;2023-04-06T17:48:33;11.50;23.00
13268;DHT22;6702;47.068;15.458;2023-04-06T17:51:36;11.40;23.30
13268;DHT22;6702;47.068;15.458;2023-04-06T17:54:40;11.40;23.40
13268;DHT22;6702;47.068;15.458;2023-04-06T17:57:43;11.40;23.40
13268;DHT22;6702;47.068;15.458;2023-04-06T18:00:48;11.30;23.80
13268;DHT22;6702;47.068;15.458;2023-04-06T18:03:52;11.30;24.20
13268;DHT22;6702;47.068;15.458;2023-04-06T18:06:55;11.30;24.00
13268;DHT22;6702;47.068;15.458;2023-04-06T18:09:58;11.10;24.20
13268;DHT22;6702;47.068;15.458;2023-04-06T18:13:02;11.10;24.50
13268;DHT22;6702;47.068;15.458;2023-04-06T18:16:07;11.10;24.70
13268;DHT22;6702;47.068;15.458;2023-04-06T18:19:13;11.00;25.10
13268;DHT22;6702;47.068;15.458;2023-04-06T18:22:16;11.00;25.10
13268;DHT22;6702;47.068;15.458;2023-04-06T18:25:22;10.90;25.30
13268;DHT22;6702;47.068;15.458;2023-04-06T18:28:26;10.90;25.40
13268;DHT22;6702;47.068;15.458;2023-04-06T18:31:30;10.90;25.30
13268;DHT22;6702;47.068;15.458;2023-04-06T18:34:33;10.80;25.50
13268;DHT22;6702;47.068;15.458;2023-04-06T18:37:37;10.80;25.90
13268;DHT22;6702;47.068;15.458;2023-04-06T18:40:40;10.80;26.00
13268;DHT22;6702;47.068;15.458;2023-04-06T18:43:44;10.80;26.70
13268;DHT22;6702;47.068;15.458;2023-04-06T18:46:49;10.70;26.10
13268;DHT22;6702;47.068;15.458;2023-04-06T18:49:56;10.70;26.30
13268;DHT22;6702;47.068;15.458;2023-04-06T18:52:59;10.70;26.40
13268;DHT22;6702;47.068;15.458;2023-04-06T18:56:03;10.60;26.50
13268;DHT22;6702;47.068;15.458;2023-04-06T18:59:14;10.60;26.70
13268;DHT22;6702;47.068;15.458;2023-04-06T19:02:20;10.50;26.70
13268;DHT22;6702;47.068;15.458;2023-04-06T19:05:23;10.50;26.80
13268;DHT22;6702;47.068;15.458;2023-04-06T19:08:26;10.50;26.70
13268;DHT22;6702;47.068;15.458;2023-04-06T19:11:30;10.40;26.90
13268;DHT22;6702;47.068;15.458;2023-04-06T19:14:34;10.40;27.20
13268;DHT22;6702;47.068;15.458;2023-04-06T19:17:39;10.40;27.20
13268;DHT22;6702;47.068;15.458;2023-04-06T19:20:42;10.40;27.30
13268;DHT22;6702;47.068;15.458;2023-04-06T19:23:47;10.30;27.30
13268;DHT22;6702;47.068;15.458;2023-04-06T19:26:51;10.30;27.40
13268;DHT22;6702;47.068;15.458;2023-04-06T19:29:54;10.30;27.50
13268;DHT22;6702;47.068;15.458;2023-04-06T19:32:59;10.20;27.40